sensor_id;sensor_type;location;lat;lon;timestamp;pressure;altitude;pressure_sealevel;temperature;humidity
74334;BME280;62753;40.394;-80.022;2024-02-28T00:01:53;96112.77;;;19.55;41.44
74334;BME280;62753;40.394;-80.022;2024-02-28T00:04:20;96116.22;;;20.31;40.03
74334;BME280;62753;40.394;-80.022;2024-02-28T00:06:44;96113.85;;;20.31;39.78
74334;BME280;62753;40.394;-80.022;2024-02-28T00:09:15;96111.35;;;19.80;40.11
74334;BME280;62753;40.394;-80.022;2024-02-28T00:11:41;96109.99;;;20.13;40.45
74334;BME280;62753;40.394;-80.022;2024-02-28T00:14:04;96114.36;;;19.59;41.46
74334;BME280;62753;40.394;-80.022;2024-02-28T00:16:27;96114.69;;;20.10;40.82
74334;BME280;62753;40.394;-80.022;2024-02-28T00:18:52;96115.95;;;20.08;40.28
74334;BME280;62753;40.394;-80.022;2024-02-28T00:21:16;96124.52;;;20.84;39.02
74334;BME280;62753;40.394;-80.022;2024-02-28T00:23:43;96129.90;;;20.96;39.52
74334;BME280;62753;40.394;-80.022;2024-02-28T00:26:12;96137.34;;;21.11;39.08
74334;BME280;62753;40.394;-80.022;2024-02-28T00:28:33;96143.87;;;20.90;38.32
74334;BME280;62753;40.394;-80.022;2024-02-28T00:30:58;96148.74;;;21.36;37.78
74334;BME280;62753;40.394;-80.022;2024-02-28T00:33:24;96140.46;;;20.98;38.63
74334;BME280;62753;40.394;-80.022;2024-02-28T00:35:49;96135.84;;;20.69;39.43
74334;BME280;62753;40.394;-80.022;2024-02-28T00:38:17;96125.69;;;20.01;41.13
74334;BME280;62753;40.394;-80.022;2024-02-28T00:40:41;96117.43;;;19.91;41.22
74334;BME280;62753;40.394;-80.022;2024-02-28T00:43:09;96119.08;;;19.79;41.80
74334;BME280;62753;40.394;-80.022;2024-02-28T00:45:31;96113.50;;;19.59;42.18
74334;BME280;62753;40.394;-80.022;2024-02-28T00:47:58;96109.95;;;19.72;43.07
74334;BME280;62753;40.394;-80.022;2024-02-28T00:50:22;96103.90;;;19.16;43.28
74334;BME280;62753;40.394;-80.022;2024-02-28T00:52:49;96112.25;;;19.40;43.98
74334;BME280;62753;40.394;-80.022;2024-02-28T00:55:12;96117.59;;;18.89;45.01
74334;BME280;62753;40.394;-80.022;2024-02-28T00:57:38;96119.11;;;19.43;43.12
74334;BME280;62753;40.394;-80.022;2024-02-28T01:00:06;96123.98;;;19.06;44.41
74334;BME280;62753;40.394;-80.022;2024-02-28T01:02:29;96124.64;;;19.22;43.56
74334;BME280;62753;40.394;-80.022;2024-02-28T01:04:55;96128.01;;;19.86;41.50
74334;BME280;62753;40.394;-80.022;2024-02-28T01:07:19;96130.54;;;19.60;42.59
74334;BME280;62753;40.394;-80.022;2024-02-28T01:09:47;96135.48;;;19.61;42.35
74334;BME280;62753;40.394;-80.022;2024-02-28T01:12:09;96144.23;;;19.32;42.46
74334;BME280;62753;40.394;-80.022;2024-02-28T01:14:35;96146.03;;;19.86;41.96
74334;BME280;62753;40.394;-80.022;2024-02-28T01:17:03;96146.97;;;19.15;42.75
74334;BME280;62753;40.394;-80.022;2024-02-28T01:19:26;96147.97;;;19.92;42.06
74334;BME280;62753;40.394;-80.022;2024-02-28T01:21:53;96148.63;;;18.96;43.35
74334;BME280;62753;40.394;-80.022;2024-02-28T01:24:17;96152.84;;;18.66;43.72
74334;BME280;62753;40.394;-80.022;2024-02-28T01:26:44;96153.14;;;18.89;43.40
74334;BME280;62753;40.394;-80.022;2024-02-28T01:29:08;96153.37;;;20.02;41.37
74334;BME280;62753;40.394;-80.022;2024-02-28T01:31:34;96148.49;;;20.05;41.57
74334;BME280;62753;40.394;-80.022;2024-02-28T01:34:00;96145.54;;;20.18;40.93
74334;BME280;62753;40.394;-80.022;2024-02-28T01:36:26;96141.65;;;19.53;41.50
74334;BME280;62753;40.394;-80.022;2024-02-28T01:38:50;96137.89;;;19.28;41.61
74334;BME280;62753;40.394;-80.022;2024-02-28T01:41:16;96133.51;;;19.73;41.68
74334;BME280;62753;40.394;-80.022;2024-02-28T01:43:44;96127.09;;;19.18;42.63
74334;BME280;62753;40.394;-80.022;2024-02-28T01:46:20;96117.00;;;19.61;41.96
74334;BME280;62753;40.394;-80.022;2024-02-28T01:48:33;96105.19;;;19.57;42.61
74334;BME280;62753;40.394;-80.022;2024-02-28T01:50:58;96102.68;;;18.18;47.17
74334;BME280;62753;40.394;-80.022;2024-02-28T01:53:23;96093.79;;;18.79;46.28
74334;BME280;62753;40.394;-80.022;2024-02-28T01:55:49;96089.46;;;18.15;47.11
74334;BME280;62753;40.394;-80.022;2024-02-28T01:58:15;96092.09;;;18.58;46.64
74334;BME280;62753;40.394;-80.022;2024-02-28T02:00:41;96088.91;;;18.51;46.77
74334;BME280;62753;40.394;-80.022;2024-02-28T02:03:05;96081.27;;;18.96;46.29
74334;BME280;62753;40.394;-80.022;2024-02-28T02:05:31;96081.54;;;18.95;45.98
74334;BME280;62753;40.394;-80.022;2024-02-28T02:07:58;96078.34;;;18.59;45.87
74334;BME280;62753;40.394;-80.022;2024-02-28T02:10:22;96075.63;;;18.62;46.16
74334;BME280;62753;40.394;-80.022;2024-02-28T02:12:50;96067.03;;;18.67;46.43
74334;BME280;62753;40.394;-80.022;2024-02-28T02:15:16;96061.65;;;18.52;47.67
74334;BME280;62753;40.394;-80.022;2024-02-28T02:17:39;96055.17;;;17.28;50.18
74334;BME280;62753;40.394;-80.022;2024-02-28T02:20:05;96058.48;;;16.88;51.20
74334;BME280;62753;40.394;-80.022;2024-02-28T02:22:34;96054.01;;;16.76;51.11
74334;BME280;62753;40.394;-80.022;2024-02-28T02:24:56;96049.96;;;17.23;50.99
74334;BME280;62753;40.394;-80.022;2024-02-28T02:27:26;96040.13;;;17.08;50.78
74334;BME280;62753;40.394;-80.022;2024-02-28T02:29:45;96042.83;;;16.77;51.86
74334;BME280;62753;40.394;-80.022;2024-02-28T02:32:12;96037.58;;;16.80;51.82
74334;BME280;62753;40.394;-80.022;2024-02-28T02:34:36;96022.24;;;16.18;53.79
74334;BME280;62753;40.394;-80.022;2024-02-28T02:37:02;96007.80;;;16.24;53.91
74334;BME280;62753;40.394;-80.022;2024-02-28T02:39:26;96007.75;;;16.21;52.89
74334;BME280;62753;40.394;-80.022;2024-02-28T02:41:53;96000.93;;;16.80;51.61
74334;BME280;62753;40.394;-80.022;2024-02-28T02:44:18;96010.89;;;16.43;52.41
74334;BME280;62753;40.394;-80.022;2024-02-28T02:46:43;96009.45;;;16.18;52.20
74334;BME280;62753;40.394;-80.022;2024-02-28T02:49:09;96006.97;;;16.23;52.55
74334;BME280;62753;40.394;-80.022;2024-02-28T02:51:34;96008.91;;;16.70;51.85
74334;BME280;62753;40.394;-80.022;2024-02-28T02:54:00;96004.92;;;15.93;52.59
74334;BME280;62753;40.394;-80.022;2024-02-28T02:56:26;96006.54;;;16.88;50.73
74334;BME280;62753;40.394;-80.022;2024-02-28T02:58:51;95992.50;;;16.37;52.08
74334;BME280;62753;40.394;-80.022;2024-02-28T03:01:16;96002.19;;;16.28;52.15
74334;BME280;62753;40.394;-80.022;2024-02-28T03:03:43;95992.81;;;15.92;53.64
74334;BME280;62753;40.394;-80.022;2024-02-28T03:06:07;95986.98;;;17.01;51.10
74334;BME280;62753;40.394;-80.022;2024-02-28T03:08:33;95990.45;;;16.75;51.05
74334;BME280;62753;40.394;-80.022;2024-02-28T03:10:59;95982.51;;;16.23;52.84
74334;BME280;62753;40.394;-80.022;2024-02-28T03:13:25;95984.05;;;16.30;51.28
74334;BME280;62753;40.394;-80.022;2024-02-28T03:15:52;95980.17;;;16.13;52.59
74334;BME280;62753;40.394;-80.022;2024-02-28T03:18:17;95982.10;;;15.93;52.37
74334;BME280;62753;40.394;-80.022;2024-02-28T03:20:40;95989.83;;;16.18;52.81
74334;BME280;62753;40.394;-80.022;2024-02-28T03:23:06;95994.18;;;16.39;51.64
74334;BME280;62753;40.394;-80.022;2024-02-28T03:25:31;95997.58;;;16.71;51.17
74334;BME280;62753;40.394;-80.022;2024-02-28T03:27:57;95995.90;;;17.12;49.66
74334;BME280;62753;40.394;-80.022;2024-02-28T03:30:23;95999.30;;;16.79;50.28
74334;BME280;62753;40.394;-80.022;2024-02-28T03:32:49;95992.15;;;17.10;48.61
74334;BME280;62753;40.394;-80.022;2024-02-28T03:35:14;95990.07;;;17.13;48.99
74334;BME280;62753;40.394;-80.022;2024-02-28T03:37:41;95984.39;;;16.49;50.18
74334;BME280;62753;40.394;-80.022;2024-02-28T03:40:09;95983.37;;;16.52;50.49
74334;BME280;62753;40.394;-80.022;2024-02-28T03:42:30;95977.30;;;16.36;51.61
74334;BME280;62753;40.394;-80.022;2024-02-28T03:44:56;95980.51;;;16.77;50.22
74334;BME280;62753;40.394;-80.022;2024-02-28T03:47:22;95975.72;;;16.18;51.75
74334;BME280;62753;40.394;-80.022;2024-02-28T03:49:47;95974.60;;;16.68;49.48
74334;BME280;62753;40.394;-80.022;2024-02-28T03:52:14;95978.74;;;17.27;48.19
74334;BME280;62753;40.394;-80.022;2024-02-28T03:54:43;95976.42;;;17.19;48.35
74334;BME280;62753;40.394;-80.022;2024-02-28T03:57:04;95974.00;;;17.25;47.83
74334;BME280;62753;40.394;-80.022;2024-02-28T03:59:30;95974.81;;;17.41;48.11
74334;BME280;62753;40.394;-80.022;2024-02-28T04:01:55;95968.64;;;16.93;48.84
74334;BME280;62753;40.394;-80.022;2024-02-28T04:04:21;95965.06;;;17.66;48.08
74334;BME280;62753;40.394;-80.022;2024-02-28T04:06:47;95959.19;;;17.01;48.92
74334;BME280;62753;40.394;-80.022;2024-02-28T04:09:12;95956.59;;;17.26;48.45
74334;BME280;62753;40.394;-80.022;2024-02-28T04:11:39;95948.33;;;17.41;47.14
74334;BME280;62753;40.394;-80.022;2024-02-28T04:14:03;95956.20;;;18.21;45.99
74334;BME280;62753;40.394;-80.022;2024-02-28T04:16:28;95951.85;;;18.79;44.51
74334;BME280;62753;40.394;-80.022;2024-02-28T04:18:53;95952.54;;;18.99;43.69
74334;BME280;62753;40.394;-80.022;2024-02-28T04:21:20;95946.55;;;17.77;46.83
74334;BME280;62753;40.394;-80.022;2024-02-28T04:23:44;95948.74;;;17.89;45.83
74334;BME280;62753;40.394;-80.022;2024-02-28T04:26:10;95939.92;;;18.15;44.47
74334;BME280;62753;40.394;-80.022;2024-02-28T04:28:36;95936.70;;;18.49;43.96
74334;BME280;62753;40.394;-80.022;2024-02-28T04:31:03;95931.90;;;16.94;47.06
74334;BME280;62753;40.394;-80.022;2024-02-28T04:33:26;95916.37;;;17.21;47.80
74334;BME280;62753;40.394;-80.022;2024-02-28T04:35:52;95909.36;;;17.12;47.54
74334;BME280;62753;40.394;-80.022;2024-02-28T04:38:17;95912.42;;;18.06;45.59
74334;BME280;62753;40.394;-80.022;2024-02-28T04:40:43;95899.94;;;17.56;46.31
74334;BME280;62753;40.394;-80.022;2024-02-28T04:43:11;95899.57;;;17.74;46.07
74334;BME280;62753;40.394;-80.022;2024-02-28T04:45:35;95907.46;;;17.60;46.11
74334;BME280;62753;40.394;-80.022;2024-02-28T04:47:59;95900.13;;;16.77;47.07
74334;BME280;62753;40.394;-80.022;2024-02-28T04:50:24;95897.48;;;16.73;47.72
74334;BME280;62753;40.394;-80.022;2024-02-28T04:52:54;95892.69;;;16.72;47.46
74334;BME280;62753;40.394;-80.022;2024-02-28T04:55:17;95894.74;;;17.07;46.70
74334;BME280;62753;40.394;-80.022;2024-02-28T04:57:41;95900.58;;;16.77;47.50
74334;BME280;62753;40.394;-80.022;2024-02-28T05:00:07;95895.85;;;17.69;45.63
74334;BME280;62753;40.394;-80.022;2024-02-28T05:02:35;95880.17;;;18.09;44.99
74334;BME280;62753;40.394;-80.022;2024-02-28T05:04:58;95876.74;;;16.99;47.26
74334;BME280;62753;40.394;-80.022;2024-02-28T05:07:23;95878.99;;;17.03;46.59
74334;BME280;62753;40.394;-80.022;2024-02-28T05:09:50;95878.57;;;17.81;44.82
74334;BME280;62753;40.394;-80.022;2024-02-28T05:12:15;95872.69;;;18.15;44.86
74334;BME280;62753;40.394;-80.022;2024-02-28T05:14:40;95870.49;;;17.47;45.42
74334;BME280;62753;40.394;-80.022;2024-02-28T05:17:05;95868.72;;;17.29;46.25
74334;BME280;62753;40.394;-80.022;2024-02-28T05:19:31;95855.97;;;17.81;45.74
74334;BME280;62753;40.394;-80.022;2024-02-28T05:21:56;95844.96;;;17.36;45.97
74334;BME280;62753;40.394;-80.022;2024-02-28T05:24:23;95843.80;;;17.30;45.99
74334;BME280;62753;40.394;-80.022;2024-02-28T05:26:47;95843.87;;;17.03;45.57
74334;BME280;62753;40.394;-80.022;2024-02-28T05:29:13;95844.83;;;17.52;45.07
74334;BME280;62753;40.394;-80.022;2024-02-28T05:31:38;95835.19;;;17.52;45.03
74334;BME280;62753;40.394;-80.022;2024-02-28T05:34:03;95823.55;;;17.24;46.39
74334;BME280;62753;40.394;-80.022;2024-02-28T05:36:29;95817.88;;;17.56;44.95
74334;BME280;62753;40.394;-80.022;2024-02-28T05:38:56;95805.99;;;17.35;45.02
74334;BME280;62753;40.394;-80.022;2024-02-28T05:41:19;95808.90;;;17.20;46.25
74334;BME280;62753;40.394;-80.022;2024-02-28T05:43:45;95815.53;;;16.76;46.58
74334;BME280;62753;40.394;-80.022;2024-02-28T05:46:10;95820.91;;;17.14;46.24
74334;BME280;62753;40.394;-80.022;2024-02-28T05:48:35;95822.62;;;17.67;45.31
74334;BME280;62753;40.394;-80.022;2024-02-28T05:51:03;95824.79;;;17.55;45.09
74334;BME280;62753;40.394;-80.022;2024-02-28T05:53:26;95836.46;;;17.24;44.37
74334;BME280;62753;40.394;-80.022;2024-02-28T05:55:53;95839.47;;;17.31;46.03
74334;BME280;62753;40.394;-80.022;2024-02-28T05:58:17;95835.47;;;17.17;45.67
74334;BME280;62753;40.394;-80.022;2024-02-28T06:00:43;95833.94;;;17.71;44.72
74334;BME280;62753;40.394;-80.022;2024-02-28T06:03:12;95825.07;;;17.74;44.68
74334;BME280;62753;40.394;-80.022;2024-02-28T06:05:33;95825.92;;;16.72;46.46
74334;BME280;62753;40.394;-80.022;2024-02-28T06:07:59;95808.50;;;16.86;45.63
74334;BME280;62753;40.394;-80.022;2024-02-28T06:10:25;95807.49;;;16.54;46.53
74334;BME280;62753;40.394;-80.022;2024-02-28T06:12:52;95797.85;;;17.12;45.77
74334;BME280;62753;40.394;-80.022;2024-02-28T06:15:16;95799.06;;;17.34;44.18
74334;BME280;62753;40.394;-80.022;2024-02-28T06:17:43;95785.03;;;17.10;45.41
74334;BME280;62753;40.394;-80.022;2024-02-28T06:20:08;95774.12;;;16.83;44.99
74334;BME280;62753;40.394;-80.022;2024-02-28T06:22:32;95767.15;;;17.10;45.45
74334;BME280;62753;40.394;-80.022;2024-02-28T06:24:57;95767.21;;;17.15;44.41
74334;BME280;62753;40.394;-80.022;2024-02-28T06:27:24;95757.13;;;16.95;45.56
74334;BME280;62753;40.394;-80.022;2024-02-28T06:29:48;95758.58;;;17.06;45.74
74334;BME280;62753;40.394;-80.022;2024-02-28T06:32:18;95747.17;;;16.46;46.83
74334;BME280;62753;40.394;-80.022;2024-02-28T06:34:40;95737.15;;;16.48;46.54
74334;BME280;62753;40.394;-80.022;2024-02-28T06:37:05;95729.27;;;16.56;46.53
74334;BME280;62753;40.394;-80.022;2024-02-28T06:39:32;95730.30;;;15.79;48.90
74334;BME280;62753;40.394;-80.022;2024-02-28T06:41:56;95742.54;;;16.08;48.20
74334;BME280;62753;40.394;-80.022;2024-02-28T06:44:22;95744.38;;;16.55;47.32
74334;BME280;62753;40.394;-80.022;2024-02-28T06:46:47;95749.70;;;16.83;46.21
74334;BME280;62753;40.394;-80.022;2024-02-28T06:49:12;95752.08;;;16.41;46.77
74334;BME280;62753;40.394;-80.022;2024-02-28T06:51:39;95748.36;;;16.28;47.63
74334;BME280;62753;40.394;-80.022;2024-02-28T06:54:05;95748.39;;;16.53;46.48
74334;BME280;62753;40.394;-80.022;2024-02-28T06:56:30;95738.87;;;15.99;48.06
74334;BME280;62753;40.394;-80.022;2024-02-28T06:58:54;95746.43;;;17.04;45.76
74334;BME280;62753;40.394;-80.022;2024-02-28T07:01:20;95731.61;;;17.24;45.29
74334;BME280;62753;40.394;-80.022;2024-02-28T07:03:47;95732.22;;;17.54;44.54
74334;BME280;62753;40.394;-80.022;2024-02-28T07:06:12;95727.69;;;18.01;43.55
74334;BME280;62753;40.394;-80.022;2024-02-28T07:08:40;95722.98;;;18.00;43.51
74334;BME280;62753;40.394;-80.022;2024-02-28T07:11:03;95717.93;;;17.90;43.41
74334;BME280;62753;40.394;-80.022;2024-02-28T07:13:29;95708.84;;;18.00;43.42
74334;BME280;62753;40.394;-80.022;2024-02-28T07:15:53;95702.10;;;18.16;42.05
74334;BME280;62753;40.394;-80.022;2024-02-28T07:18:20;95697.17;;;17.86;43.05
74334;BME280;62753;40.394;-80.022;2024-02-28T07:20:46;95675.35;;;18.39;42.33
74334;BME280;62753;40.394;-80.022;2024-02-28T07:23:13;95678.24;;;17.82;43.16
74334;BME280;62753;40.394;-80.022;2024-02-28T07:25:37;95664.56;;;18.16;43.73
74334;BME280;62753;40.394;-80.022;2024-02-28T07:28:01;95663.61;;;17.29;46.65
74334;BME280;62753;40.394;-80.022;2024-02-28T07:30:28;95673.98;;;16.50;49.28
74334;BME280;62753;40.394;-80.022;2024-02-28T07:32:54;95697.95;;;16.56;50.48
74334;BME280;62753;40.394;-80.022;2024-02-28T07:35:18;95729.05;;;17.35;48.75
74334;BME280;62753;40.394;-80.022;2024-02-28T07:37:46;95693.87;;;17.26;49.09
74334;BME280;62753;40.394;-80.022;2024-02-28T07:40:11;95669.54;;;16.71;51.42
74334;BME280;62753;40.394;-80.022;2024-02-28T07:42:36;95670.33;;;17.37;50.37
74334;BME280;62753;40.394;-80.022;2024-02-28T07:45:00;95665.62;;;16.85;52.77
74334;BME280;62753;40.394;-80.022;2024-02-28T07:47:28;95711.41;;;16.48;53.01
74334;BME280;62753;40.394;-80.022;2024-02-28T07:49:54;95717.08;;;16.44;54.44
74334;BME280;62753;40.394;-80.022;2024-02-28T07:52:19;95727.30;;;17.01;52.87
74334;BME280;62753;40.394;-80.022;2024-02-28T07:54:42;95710.00;;;17.13;53.33
74334;BME280;62753;40.394;-80.022;2024-02-28T07:57:08;95687.27;;;16.86;54.68
74334;BME280;62753;40.394;-80.022;2024-02-28T07:59:38;95690.22;;;17.05;53.48
74334;BME280;62753;40.394;-80.022;2024-02-28T08:02:00;95668.97;;;17.24;53.65
74334;BME280;62753;40.394;-80.022;2024-02-28T08:04:24;95676.58;;;17.62;52.58
74334;BME280;62753;40.394;-80.022;2024-02-28T08:06:51;95654.49;;;17.62;52.33
74334;BME280;62753;40.394;-80.022;2024-02-28T08:09:16;95645.11;;;17.05;53.44
74334;BME280;62753;40.394;-80.022;2024-02-28T08:11:43;95657.95;;;17.19;53.26
74334;BME280;62753;40.394;-80.022;2024-02-28T08:14:07;95621.09;;;17.30;52.68
74334;BME280;62753;40.394;-80.022;2024-02-28T08:16:32;95635.57;;;17.41;51.35
74334;BME280;62753;40.394;-80.022;2024-02-28T08:18:58;95620.67;;;18.26;50.32
74334;BME280;62753;40.394;-80.022;2024-02-28T08:21:23;95608.45;;;17.26;51.62
74334;BME280;62753;40.394;-80.022;2024-02-28T08:23:49;95600.14;;;17.08;52.88
74334;BME280;62753;40.394;-80.022;2024-02-28T08:26:14;95610.82;;;17.02;53.23
74334;BME280;62753;40.394;-80.022;2024-02-28T08:28:39;95604.55;;;16.89;53.33
74334;BME280;62753;40.394;-80.022;2024-02-28T08:31:07;95586.40;;;16.72;53.94
74334;BME280;62753;40.394;-80.022;2024-02-28T08:33:30;95593.91;;;17.00;53.19
74334;BME280;62753;40.394;-80.022;2024-02-28T08:35:54;95587.70;;;16.53;55.04
74334;BME280;62753;40.394;-80.022;2024-02-28T08:38:21;95585.55;;;16.06;56.75
74334;BME280;62753;40.394;-80.022;2024-02-28T08:40:46;95582.23;;;15.59;57.38
74334;BME280;62753;40.394;-80.022;2024-02-28T08:43:13;95573.87;;;15.78;57.89
74334;BME280;62753;40.394;-80.022;2024-02-28T08:45:37;95565.69;;;15.81;59.36
74334;BME280;62753;40.394;-80.022;2024-02-28T08:48:04;95566.36;;;15.46;59.41
74334;BME280;62753;40.394;-80.022;2024-02-28T08:50:28;95561.03;;;15.80;59.02
74334;BME280;62753;40.394;-80.022;2024-02-28T08:52:55;95572.04;;;15.75;58.26
74334;BME280;62753;40.394;-80.022;2024-02-28T08:55:19;95549.50;;;15.60;59.35
74334;BME280;62753;40.394;-80.022;2024-02-28T08:57:46;95555.36;;;15.68;59.40
74334;BME280;62753;40.394;-80.022;2024-02-28T09:00:12;95553.04;;;15.82;58.19
74334;BME280;62753;40.394;-80.022;2024-02-28T09:02:38;95555.43;;;16.62;55.54
74334;BME280;62753;40.394;-80.022;2024-02-28T09:05:04;95551.25;;;16.26;56.29
74334;BME280;62753;40.394;-80.022;2024-02-28T09:07:26;95545.01;;;15.78;57.37
74334;BME280;62753;40.394;-80.022;2024-02-28T09:09:53;95548.69;;;16.43;56.86
74334;BME280;62753;40.394;-80.022;2024-02-28T09:12:18;95540.63;;;16.17;57.20
74334;BME280;62753;40.394;-80.022;2024-02-28T09:14:44;95540.34;;;15.96;58.09
74334;BME280;62753;40.394;-80.022;2024-02-28T09:17:10;95532.30;;;16.13;58.30
74334;BME280;62753;40.394;-80.022;2024-02-28T09:19:34;95529.09;;;16.06;57.46
74334;BME280;62753;40.394;-80.022;2024-02-28T09:22:01;95525.16;;;15.98;57.70
74334;BME280;62753;40.394;-80.022;2024-02-28T09:24:25;95529.74;;;16.80;54.96
74334;BME280;62753;40.394;-80.022;2024-02-28T09:26:52;95536.29;;;16.55;54.24
74334;BME280;62753;40.394;-80.022;2024-02-28T09:29:15;95531.05;;;16.37;55.12
74334;BME280;62753;40.394;-80.022;2024-02-28T09:31:40;95512.49;;;16.22;55.49
74334;BME280;62753;40.394;-80.022;2024-02-28T09:34:06;95504.61;;;16.30;55.98
74334;BME280;62753;40.394;-80.022;2024-02-28T09:36:34;95517.35;;;16.04;57.25
74334;BME280;62753;40.394;-80.022;2024-02-28T09:38:56;95516.58;;;16.28;54.95
74334;BME280;62753;40.394;-80.022;2024-02-28T09:41:22;95521.89;;;16.09;56.34
74334;BME280;62753;40.394;-80.022;2024-02-28T09:43:47;95523.98;;;16.34;55.07
74334;BME280;62753;40.394;-80.022;2024-02-28T09:46:14;95518.40;;;16.34;55.02
74334;BME280;62753;40.394;-80.022;2024-02-28T09:48:39;95525.19;;;16.73;54.67
74334;BME280;62753;40.394;-80.022;2024-02-28T09:51:05;95526.63;;;16.74;54.09
74334;BME280;62753;40.394;-80.022;2024-02-28T09:53:28;95526.28;;;16.95;53.26
74334;BME280;62753;40.394;-80.022;2024-02-28T09:55:55;95520.85;;;17.08;53.50
74334;BME280;62753;40.394;-80.022;2024-02-28T09:58:19;95510.01;;;15.94;54.81
74334;BME280;62753;40.394;-80.022;2024-02-28T10:00:46;95504.65;;;16.57;53.91
74334;BME280;62753;40.394;-80.022;2024-02-28T10:03:11;95507.77;;;16.85;52.82
74334;BME280;62753;40.394;-80.022;2024-02-28T10:05:35;95504.06;;;17.13;52.41
74334;BME280;62753;40.394;-80.022;2024-02-28T10:08:00;95501.07;;;16.10;54.93
74334;BME280;62753;40.394;-80.022;2024-02-28T10:10:26;95503.98;;;16.70;53.88
74334;BME280;62753;40.394;-80.022;2024-02-28T10:12:53;95498.67;;;16.46;54.29
74334;BME280;62753;40.394;-80.022;2024-02-28T10:15:18;95494.40;;;16.81;53.10
74334;BME280;62753;40.394;-80.022;2024-02-28T10:17:43;95499.89;;;16.58;54.54
74334;BME280;62753;40.394;-80.022;2024-02-28T10:20:11;95506.90;;;16.10;55.23
74334;BME280;62753;40.394;-80.022;2024-02-28T10:22:34;95500.24;;;16.31;54.88
74334;BME280;62753;40.394;-80.022;2024-02-28T10:25:00;95496.85;;;17.13;52.31
74334;BME280;62753;40.394;-80.022;2024-02-28T10:27:24;95493.18;;;16.49;53.38
74334;BME280;62753;40.394;-80.022;2024-02-28T10:29:51;95491.80;;;17.08;51.85
74334;BME280;62753;40.394;-80.022;2024-02-28T10:32:17;95489.34;;;17.38;52.40
74334;BME280;62753;40.394;-80.022;2024-02-28T10:34:43;95487.34;;;17.48;51.11
74334;BME280;62753;40.394;-80.022;2024-02-28T10:37:07;95485.65;;;17.73;50.48
74334;BME280;62753;40.394;-80.022;2024-02-28T10:39:35;95489.17;;;17.33;51.09
74334;BME280;62753;40.394;-80.022;2024-02-28T10:42:00;95481.44;;;16.58;52.76
74334;BME280;62753;40.394;-80.022;2024-02-28T10:44:25;95481.31;;;17.66;50.85
74334;BME280;62753;40.394;-80.022;2024-02-28T10:46:51;95489.79;;;18.33;48.80
74334;BME280;62753;40.394;-80.022;2024-02-28T10:49:16;95485.06;;;18.00;49.04
74334;BME280;62753;40.394;-80.022;2024-02-28T10:51:46;95479.54;;;17.51;50.82
74334;BME280;62753;40.394;-80.022;2024-02-28T10:54:09;95475.59;;;18.36;48.94
74334;BME280;62753;40.394;-80.022;2024-02-28T10:56:32;95464.52;;;18.45;48.03
74334;BME280;62753;40.394;-80.022;2024-02-28T10:58:59;95448.79;;;18.76;47.17
74334;BME280;62753;40.394;-80.022;2024-02-28T11:01:23;95444.43;;;17.80;49.23
74334;BME280;62753;40.394;-80.022;2024-02-28T11:03:50;95430.62;;;18.09;48.42
74334;BME280;62753;40.394;-80.022;2024-02-28T11:06:19;95431.04;;;17.51;49.77
74334;BME280;62753;40.394;-80.022;2024-02-28T11:08:40;95421.91;;;17.64;50.31
74334;BME280;62753;40.394;-80.022;2024-02-28T11:11:08;95412.16;;;17.62;50.18
74334;BME280;62753;40.394;-80.022;2024-02-28T11:13:31;95415.66;;;17.30;50.93
74334;BME280;62753;40.394;-80.022;2024-02-28T11:18:22;95405.95;;;17.80;49.01
74334;BME280;62753;40.394;-80.022;2024-02-28T11:20:47;95412.09;;;17.64;50.15
74334;BME280;62753;40.394;-80.022;2024-02-28T11:23:13;95415.32;;;17.42;51.20
74334;BME280;62753;40.394;-80.022;2024-02-28T11:25:38;95416.05;;;17.34;52.06
74334;BME280;62753;40.394;-80.022;2024-02-28T11:28:04;95404.92;;;16.82;53.86
74334;BME280;62753;40.394;-80.022;2024-02-28T11:30:28;95401.20;;;17.06;53.70
74334;BME280;62753;40.394;-80.022;2024-02-28T11:32:55;95413.82;;;16.96;53.25
74334;BME280;62753;40.394;-80.022;2024-02-28T11:35:19;95437.69;;;17.87;50.93
74334;BME280;62753;40.394;-80.022;2024-02-28T11:37:46;95443.40;;;18.16;51.73
74334;BME280;62753;40.394;-80.022;2024-02-28T11:40:13;95437.55;;;18.11;51.78
74334;BME280;62753;40.394;-80.022;2024-02-28T11:42:38;95415.67;;;17.48;53.24
74334;BME280;62753;40.394;-80.022;2024-02-28T11:45:01;95417.77;;;17.94;52.29
74334;BME280;62753;40.394;-80.022;2024-02-28T11:47:28;95401.73;;;17.64;53.30
74334;BME280;62753;40.394;-80.022;2024-02-28T11:49:53;95400.97;;;17.73;52.63
74334;BME280;62753;40.394;-80.022;2024-02-28T11:52:18;95406.35;;;18.06;52.08
74334;BME280;62753;40.394;-80.022;2024-02-28T11:54:42;95424.42;;;17.96;52.20
74334;BME280;62753;40.394;-80.022;2024-02-28T11:57:11;95432.44;;;17.47;53.10
74334;BME280;62753;40.394;-80.022;2024-02-28T11:59:32;95426.38;;;16.86;54.82
74334;BME280;62753;40.394;-80.022;2024-02-28T12:01:57;95426.11;;;17.29;54.36
74334;BME280;62753;40.394;-80.022;2024-02-28T12:04:24;95422.26;;;17.40;54.69
74334;BME280;62753;40.394;-80.022;2024-02-28T12:06:49;95442.15;;;17.07;54.44
74334;BME280;62753;40.394;-80.022;2024-02-28T12:09:14;95448.50;;;16.55;56.15
74334;BME280;62753;40.394;-80.022;2024-02-28T12:11:39;95427.41;;;16.74;57.22
74334;BME280;62753;40.394;-80.022;2024-02-28T12:14:05;95423.06;;;16.76;56.39
74334;BME280;62753;40.394;-80.022;2024-02-28T12:16:31;95413.49;;;16.97;56.44
74334;BME280;62753;40.394;-80.022;2024-02-28T12:18:55;95393.54;;;17.41;55.74
74334;BME280;62753;40.394;-80.022;2024-02-28T12:21:25;95391.98;;;16.92;55.82
74334;BME280;62753;40.394;-80.022;2024-02-28T12:23:46;95408.02;;;16.43;58.16
74334;BME280;62753;40.394;-80.022;2024-02-28T12:26:10;95392.69;;;16.14;59.51
74334;BME280;62753;40.394;-80.022;2024-02-28T12:28:37;95394.89;;;16.16;59.07
74334;BME280;62753;40.394;-80.022;2024-02-28T12:31:02;95391.31;;;16.26;58.97
74334;BME280;62753;40.394;-80.022;2024-02-28T12:33:26;95395.21;;;16.75;58.35